Time;durP1;ratioP1;P1;durP2;ratioP2;P2;SDS_P1;SDS_P2;PMS_P1;PMS_P2;Temp;Humidity;BMP_temperature;BMP_pressure;BME280_temperature;BME280_humidity;BME280_pressure;Samples;Min_cycle;Max_cycle;Signal;HPM_P1;HPM_P2
2021/12/31 00:00:46;;;;;;;8.60;4.97;;;;;;;9.30;64.46;100294.72;5091971;28;20024;-37
2021/12/31 00:03:12;;;;;;;10.07;4.80;;;;;;;8.92;65.71;100300.06;5091833;28;20088;-38
2021/12/31 00:05:38;;;;;;;7.45;4.60;;;;;;;8.93;66.01;100298.22;5092441;28;20099;-37
2021/12/31 00:08:04;;;;;;;6.15;4.50;;;;;;;8.80;66.42;100290.88;5091622;28;20055;-38
2021/12/31 00:10:29;;;;;;;8.18;4.97;;;;;;;8.74;65.85;100305.69;5089129;28;20019;-39
2021/12/31 00:12:56;;;;;;;7.75;4.43;;;;;;;8.45;67.75;100303.72;5091545;28;20020;-38
2021/12/31 00:15:22;;;;;;;6.03;4.15;;;;;;;8.46;67.09;100297.44;5091666;28;20039;-39
2021/12/31 00:17:48;;;;;;;6.72;4.80;;;;;;;9.38;64.88;100312.41;5089772;28;20379;-39
2021/12/31 00:20:17;;;;;;;7.78;4.40;;;;;;;9.14;65.34;100309.00;5091686;28;20028;-38
2021/12/31 00:23:02;;;;;;;7.82;4.55;;;;;;;8.97;66.32;100313.63;5091906;28;20024;-38
2021/12/31 00:25:29;;;;;;;7.35;4.75;;;;;;;8.86;65.73;100314.06;5092271;28;20027;-38
2021/12/31 00:27:54;;;;;;;7.28;4.65;;;;;;;8.78;67.08;100296.38;5091817;28;20387;-37
2021/12/31 00:30:20;;;;;;;6.57;4.60;;;;;;;8.69;65.79;100280.69;5090762;28;20449;-38
2021/12/31 00:32:47;;;;;;;7.40;4.97;;;;;;;8.45;67.65;100306.38;5091990;28;20479;-38
2021/12/31 00:35:12;;;;;;;8.05;5.10;;;;;;;8.40;67.93;100306.06;5091566;28;20028;-39
2021/12/31 00:37:38;;;;;;;9.02;5.40;;;;;;;8.89;66.28;100303.09;5091643;28;20035;-39
2021/12/31 00:40:09;;;;;;;8.32;5.30;;;;;;;8.60;66.23;100272.81;5091185;28;20095;-39
2021/12/31 00:42:34;;;;;;;8.48;5.30;;;;;;;8.57;67.63;100304.97;5092129;28;20485;-38
2021/12/31 00:45:00;;;;;;;9.45;5.22;;;;;;;8.55;67.16;100304.34;5091882;28;20062;-38
2021/12/31 00:47:25;;;;;;;8.65;5.60;;;;;;;8.37;69.04;100306.41;5091899;28;20077;-38
2021/12/31 00:49:51;;;;;;;8.68;5.68;;;;;;;8.46;68.09;100302.72;5091567;28;20020;-37
2021/12/31 00:52:16;;;;;;;9.05;5.53;;;;;;;8.26;68.83;100299.66;5091387;28;20325;-37
2021/12/31 00:54:43;;;;;;;8.38;5.68;;;;;;;8.34;69.38;100296.97;5090144;28;20023;-38
2021/12/31 00:57:09;;;;;;;8.35;5.85;;;;;;;8.99;66.83;100293.03;5091341;28;20036;-38
2021/12/31 00:59:35;;;;;;;9.57;6.25;;;;;;;8.49;68.29;100286.47;5091711;28;20024;-38
2021/12/31 01:02:05;;;;;;;8.32;5.78;;;;;;;8.74;68.33;100294.25;5091287;28;20445;-38
2021/12/31 01:04:31;;;;;;;9.55;5.68;;;;;;;8.68;67.40;100286.97;5091546;28;20028;-37
2021/12/31 01:06:58;;;;;;;8.85;6.15;;;;;;;8.61;67.99;100295.66;5090548;28;20156;-38
2021/12/31 01:09:24;;;;;;;10.23;5.90;;;;;;;8.40;69.36;100290.16;5090940;28;20055;-38
2021/12/31 01:11:50;;;;;;;8.45;5.75;;;;;;;8.29;69.14;100286.06;5091209;28;20449;-39
2021/12/31 01:14:35;;;;;;;8.68;5.90;;;;;;;8.32;69.32;100277.78;5090320;28;20098;-38
2021/12/31 01:17:04;;;;;;;9.45;5.78;;;;;;;8.83;67.90;100268.47;5090703;28;20020;-38
2021/12/31 01:19:48;;;;;;;9.10;5.93;;;;;;;8.60;67.97;100267.50;5091034;28;20035;-36
2021/12/31 01:22:22;;;;;;;9.82;6.10;;;;;;;8.57;68.77;100267.84;5090628;28;20020;-38
2021/12/31 01:24:47;;;;;;;8.60;6.07;;;;;;;8.43;69.40;100260.63;5090793;28;20093;-37
2021/12/31 01:27:13;;;;;;;8.80;5.70;;;;;;;8.39;70.09;100254.81;5090891;28;20048;-38
2021/12/31 01:29:38;;;;;;;9.38;5.53;;;;;;;8.56;68.60;100270.66;5090566;28;20114;-38
2021/12/31 01:32:04;;;;;;;8.20;5.55;;;;;;;8.46;69.61;100267.44;5089977;28;20126;-38
2021/12/31 01:34:30;;;;;;;7.85;5.63;;;;;;;8.40;69.34;100266.28;5090432;28;20020;-38
2021/12/31 01:36:55;;;;;;;9.25;5.80;;;;;;;8.52;68.54;100264.06;5090506;28;20028;-38
2021/12/31 01:39:21;;;;;;;7.45;5.05;;;;;;;8.22;69.42;100267.38;5090355;28;20499;-38
2021/12/31 01:41:46;;;;;;;7.75;4.88;;;;;;;7.86;70.23;100263.59;5089180;28;20353;-38
2021/12/31 01:44:12;;;;;;;8.20;5.70;;;;;;;8.01;70.60;100257.41;5090545;28;20035;-38
2021/12/31 01:46:52;;;;;;;9.00;5.85;;;;;;;8.32;69.95;100259.22;5091080;28;20062;-38
2021/12/31 01:49:20;;;;;;;9.35;5.70;;;;;;;8.01;70.54;100253.91;5090144;28;20494;-38
2021/12/31 01:51:46;;;;;;;8.43;5.57;;;;;;;7.88;71.02;100265.09;5090324;28;20028;-38
2021/12/31 01:54:11;;;;;;;9.98;5.35;;;;;;;7.85;71.26;100257.47;5090338;28;20054;-38
2021/12/31 01:56:37;;;;;;;9.80;5.70;;;;;;;7.75;72.31;100255.03;5090319;28;20031;-38
2021/12/31 01:59:02;;;;;;;8.68;5.55;;;;;;;7.67;72.63;100259.53;5090435;28;20459;-38
2021/12/31 02:01:28;;;;;;;8.57;5.45;;;;;;;7.52;72.79;100248.84;5072169;28;20028;-38
2021/12/31 02:03:53;;;;;;;8.52;5.00;;;;;;;7.70;72.17;100251.25;5089070;28;20042;-38
2021/12/31 02:06:19;;;;;;;8.98;5.25;;;;;;;7.71;72.29;100251.09;5072499;28;20028;-39
2021/12/31 02:08:44;;;;;;;8.30;5.47;;;;;;;7.76;71.83;100246.09;5090409;28;20054;-38
2021/12/31 02:11:10;;;;;;;7.50;5.15;;;;;;;7.54;73.00;100246.84;5090726;28;20027;-38
2021/12/31 02:13:36;;;;;;;8.20;5.38;;;;;;;7.99;71.00;100251.44;5090663;28;20383;-38
2021/12/31 02:16:02;;;;;;;7.40;5.22;;;;;;;7.90;70.86;100241.06;5090232;28;20024;-39
2021/12/31 02:18:30;;;;;;;9.85;5.45;;;;;;;7.55;72.30;100238.72;5090384;28;20069;-39
2021/12/31 02:20:55;;;;;;;9.10;5.57;;;;;;;7.75;71.63;100239.16;5089897;28;20410;-38
2021/12/31 02:23:25;;;;;;;9.82;6.00;;;;;;;7.77;72.64;100237.16;5090272;28;20556;-39
2021/12/31 02:25:51;;;;;;;8.55;5.28;;;;;;;7.83;71.58;100236.44;5090454;28;20020;-39
2021/12/31 02:28:18;;;;;;;8.45;5.57;;;;;;;7.71;72.92;100229.06;5089961;28;20047;-39
2021/12/31 02:30:43;;;;;;;11.18;6.03;;;;;;;8.21;69.89;100235.75;5090555;28;20020;-38
2021/12/31 02:33:09;;;;;;;8.35;5.47;;;;;;;8.15;69.06;100239.94;5090267;28;20439;-39
2021/12/31 02:35:34;;;;;;;8.98;5.63;;;;;;;8.03;70.45;100247.47;5089918;28;20028;-38
2021/12/31 02:38:00;;;;;;;9.95;6.03;;;;;;;7.78;71.18;100257.31;5090028;28;20055;-38
2021/12/31 02:40:28;;;;;;;9.75;6.40;;;;;;;7.71;72.36;100259.03;5090139;28;20058;-38
2021/12/31 02:42:53;;;;;;;9.00;5.97;;;;;;;7.47;72.86;100275.03;5090098;28;20020;-38
2021/12/31 02:45:21;;;;;;;8.20;5.32;;;;;;;7.57;72.77;100291.53;5090326;28;20033;-38
2021/12/31 02:47:47;;;;;;;10.48;6.57;;;;;;;7.49;72.99;100291.56;5089740;28;20621;-38
2021/12/31 02:50:14;;;;;;;8.90;5.60;;;;;;;7.50;73.62;100301.16;5090123;28;20099;-38
2021/12/31 02:52:40;;;;;;;8.82;5.82;;;;;;;7.41;73.39;100309.13;5090151;28;20032;-38
2021/12/31 02:55:06;;;;;;;7.57;5.60;;;;;;;7.04;74.26;100277.91;5089633;28;20020;-38
2021/12/31 02:57:31;;;;;;;9.93;5.68;;;;;;;7.25;74.40;100293.25;5087720;28;20020;-38
2021/12/31 02:59:56;;;;;;;8.60;5.93;;;;;;;7.33;73.72;100295.91;5071678;28;20121;-38
2021/12/31 03:02:24;;;;;;;9.50;6.10;;;;;;;7.38;73.93;100290.09;5090049;28;20467;-39
2021/12/31 03:04:51;;;;;;;8.95;6.45;;;;;;;7.13;76.30;100297.25;5089575;28;20130;-38
2021/12/31 03:07:17;;;;;;;8.35;5.82;;;;;;;7.28;75.11;100294.75;5088375;28;20429;-38
2021/12/31 03:09:46;;;;;;;9.85;6.13;;;;;;;7.29;74.61;100289.31;5088500;28;20028;-39
2021/12/31 03:12:13;;;;;;;9.98;6.22;;;;;;;7.91;72.16;100298.38;5071901;28;20028;-39
2021/12/31 03:14:39;;;;;;;9.70;6.05;;;;;;;8.08;71.16;100318.50;5089787;28;20337;-38
2021/12/31 03:17:05;;;;;;;10.25;6.60;;;;;;;7.51;72.26;100306.28;5088186;28;20123;-38
2021/12/31 03:19:30;;;;;;;9.52;6.25;;;;;;;7.22;73.21;100312.13;5088477;28;20020;-38
2021/12/31 03:21:56;;;;;;;10.02;6.30;;;;;;;7.26;74.21;100315.28;5089899;28;20027;-39
2021/12/31 03:24:21;;;;;;;11.23;6.30;;;;;;;7.24;74.96;100318.91;5089708;28;20020;-37
2021/12/31 03:26:47;;;;;;;9.23;6.43;;;;;;;7.63;71.98;100299.63;5089435;28;20024;-39
2021/12/31 03:29:12;;;;;;;8.50;6.03;;;;;;;7.67;72.69;100323.13;5090312;28;20040;-39
2021/12/31 03:31:38;;;;;;;9.27;5.97;;;;;;;7.35;73.08;100323.03;5089869;28;20039;-39
2021/12/31 03:34:03;;;;;;;9.52;6.05;;;;;;;7.19;73.18;100328.34;5089657;28;20053;-38
2021/12/31 03:36:29;;;;;;;8.77;6.03;;;;;;;6.81;75.15;100334.13;5089712;28;20142;-39
2021/12/31 03:38:54;;;;;;;10.02;6.70;;;;;;;6.86;74.98;100338.94;5091876;28;20028;-39
2021/12/31 03:41:20;;;;;;;11.50;6.20;;;;;;;6.68;76.16;100340.91;5091965;28;20034;-38
2021/12/31 03:43:46;;;;;;;9.05;5.93;;;;;;;6.67;76.46;100348.03;5093333;28;20031;-40
2021/12/31 03:46:11;;;;;;;8.55;5.65;;;;;;;6.33;77.67;100348.94;5092829;28;20028;-39
2021/12/31 03:48:36;;;;;;;8.93;5.70;;;;;;;6.45;76.91;100336.22;5093117;28;20023;-38
2021/12/31 03:51:02;;;;;;;9.35;6.00;;;;;;;6.52;75.54;100339.88;5092843;28;20031;-39
2021/12/31 03:53:27;;;;;;;8.88;6.10;;;;;;;6.30;76.82;100349.25;5092780;28;20026;-39
2021/12/31 03:55:53;;;;;;;9.60;6.00;;;;;;;6.14;76.76;100342.09;5092859;28;20024;-38
2021/12/31 03:58:18;;;;;;;8.45;5.30;;;;;;;6.27;76.95;100352.22;5092490;28;20488;-39
2021/12/31 04:00:46;;;;;;;8.85;5.72;;;;;;;5.94;78.13;100354.72;5093108;28;20019;-38
2021/12/31 04:03:11;;;;;;;8.45;5.32;;;;;;;6.20;77.03;100361.78;5093097;28;20089;-38
2021/12/31 04:05:41;;;;;;;9.68;5.82;;;;;;;6.13;77.70;100360.75;5092848;28;20161;-40
2021/12/31 04:08:08;;;;;;;9.10;6.00;;;;;;;6.07;77.09;100364.84;5092485;28;20051;-37
2021/12/31 04:10:33;;;;;;;9.43;5.63;;;;;;;6.11;77.44;100363.59;5091757;28;20016;-38
2021/12/31 04:12:59;;;;;;;10.23;6.13;;;;;;;6.17;77.33;100355.00;5091790;28;20043;-38
2021/12/31 04:15:24;;;;;;;8.63;5.63;;;;;;;5.94;78.06;100341.50;5092740;28;20032;-38
2021/12/31 04:17:50;;;;;;;9.10;6.05;;;;;;;6.12;77.72;100337.97;5092411;28;20028;-39
2021/12/31 04:20:21;;;;;;;9.80;5.70;;;;;;;5.96;77.70;100336.06;5092686;28;20067;-39
2021/12/31 04:22:53;;;;;;;7.75;5.30;;;;;;;6.29;76.99;100352.06;5092505;28;20039;-38
2021/12/31 04:25:19;;;;;;;6.97;4.75;;;;;;;6.53;75.98;100340.72;5092757;28;20020;-38
2021/12/31 04:27:44;;;;;;;7.65;4.82;;;;;;;6.14;76.51;100352.66;5092859;28;20017;-38
2021/12/31 04:30:10;;;;;;;8.02;5.35;;;;;;;6.59;75.76;100350.66;5090926;28;20016;-39
2021/12/31 04:32:36;;;;;;;7.88;5.22;;;;;;;6.79;74.35;100367.88;5092366;28;20027;-39
2021/12/31 04:35:01;;;;;;;9.50;5.40;;;;;;;6.65;74.77;100360.59;5092666;28;20176;-39
2021/12/31 04:37:27;;;;;;;11.90;7.22;;;;;;;6.29;75.83;100373.22;5092068;28;20031;-38
2021/12/31 04:39:52;;;;;;;19.58;10.48;;;;;;;5.99;76.86;100367.47;5092286;28;20026;-38
2021/12/31 04:42:17;;;;;;;15.95;8.60;;;;;;;6.32;76.34;100386.09;5092526;28;20027;-38
2021/12/31 04:44:43;;;;;;;24.67;13.45;;;;;;;6.34;76.17;100378.84;5091997;28;20020;-38
2021/12/31 04:47:09;;;;;;;65.78;30.20;;;;;;;6.36;76.16;100379.50;5092036;28;20016;-38
2021/12/31 04:49:34;;;;;;;8.52;5.30;;;;;;;6.63;75.12;100386.38;5091418;28;20506;-37
2021/12/31 04:52:00;;;;;;;8.13;5.20;;;;;;;6.44;75.77;100383.00;5092235;28;20020;-39
2021/12/31 04:54:25;;;;;;;6.95;4.65;;;;;;;6.19;76.38;100381.28;5092164;28;20061;-39
2021/12/31 04:56:53;;;;;;;8.13;5.22;;;;;;;6.39;75.69;100381.84;5092044;28;20016;-39
2021/12/31 04:59:20;;;;;;;8.95;5.55;;;;;;;6.33;76.45;100387.75;5092213;28;20020;-38
2021/12/31 05:01:45;;;;;;;9.75;5.60;;;;;;;6.28;76.40;100392.69;5091815;28;20031;-39
2021/12/31 05:04:11;;;;;;;8.18;5.05;;;;;;;6.19;77.44;100391.84;5091705;28;20102;-39
2021/12/31 05:06:38;;;;;;;8.98;5.53;;;;;;;6.58;74.96;100391.31;5091446;28;20103;-39
2021/12/31 05:09:03;;;;;;;8.30;5.30;;;;;;;6.58;74.47;100397.41;5091558;28;20027;-39
2021/12/31 05:11:28;;;;;;;10.57;5.95;;;;;;;6.59;74.71;100392.97;5091360;28;20024;-38
2021/12/31 05:13:54;;;;;;;9.38;5.55;;;;;;;6.37;74.98;100391.75;5091602;28;20069;-38
2021/12/31 05:16:19;;;;;;;9.15;5.32;;;;;;;6.26;76.48;100392.84;5091462;28;20070;-39
2021/12/31 05:18:45;;;;;;;9.30;5.82;;;;;;;6.28;75.88;100396.16;5090986;28;20438;-38
2021/12/31 05:21:10;;;;;;;9.32;5.93;;;;;;;6.26;75.78;100400.78;5091360;28;20024;-38
2021/12/31 05:23:36;;;;;;;8.13;5.30;;;;;;;6.35;76.59;100410.41;5091334;28;20399;-38
2021/12/31 05:26:01;;;;;;;8.88;5.55;;;;;;;6.44;74.61;100404.16;5091282;28;20020;-38
2021/12/31 05:28:27;;;;;;;8.52;5.72;;;;;;;6.57;75.37;100410.81;5091108;28;20361;-38
2021/12/31 05:30:52;;;;;;;8.05;5.68;;;;;;;6.30;76.53;100403.94;5091085;28;20032;-38
2021/12/31 05:33:18;;;;;;;8.70;5.40;;;;;;;6.35;76.14;100399.81;5090905;28;20028;-38
2021/12/31 05:35:43;;;;;;;8.48;5.50;;;;;;;6.53;76.19;100402.38;5091018;28;20074;-38
2021/12/31 05:38:09;;;;;;;9.80;5.82;;;;;;;6.55;74.94;100386.31;5091000;28;20020;-38
2021/12/31 05:40:34;;;;;;;10.73;6.00;;;;;;;6.68;74.67;100389.34;5091048;28;20027;-48
2021/12/31 05:43:00;;;;;;;8.70;5.65;;;;;;;6.51;75.55;100395.56;5090877;28;20020;-49
2021/12/31 05:45:25;;;;;;;12.77;5.80;;;;;;;6.34;76.23;100384.13;5090417;28;20147;-49
2021/12/31 05:47:51;;;;;;;9.65;5.95;;;;;;;6.28;77.05;100375.00;5090657;28;20020;-49
2021/12/31 05:50:27;;;;;;;8.73;5.82;;;;;;;6.99;73.75;100391.38;5090860;28;20031;-48
2021/12/31 05:52:54;;;;;;;71.65;31.70;;;;;;;6.93;73.90;100390.22;5090782;28;20085;-48
2021/12/31 05:55:20;;;;;;;22.13;12.32;;;;;;;6.57;74.33;100398.41;5083889;28;20025;-47
2021/12/31 05:57:45;;;;;;;44.88;22.40;;;;;;;6.54;76.14;100398.72;5077323;28;20028;-48
2021/12/31 06:00:11;;;;;;;12.13;6.45;;;;;;;6.46;76.61;100399.53;5070656;28;20108;-49
2021/12/31 06:02:37;;;;;;;10.18;6.03;;;;;;;6.84;75.18;100385.91;5070721;28;20039;-49
2021/12/31 06:05:02;;;;;;;11.32;5.90;;;;;;;6.80;75.14;100384.59;5070301;28;20082;-48
2021/12/31 06:07:28;;;;;;;8.75;5.43;;;;;;;6.73;74.80;100399.44;5081887;28;20051;-48
2021/12/31 06:09:53;;;;;;;9.10;5.65;;;;;;;6.62;75.11;100387.34;5086204;28;20024;-49
2021/12/31 06:12:19;;;;;;;9.05;5.82;;;;;;;7.05;73.65;100386.25;5077986;28;20049;-49
2021/12/31 06:14:44;;;;;;;9.75;5.60;;;;;;;6.98;73.06;100355.31;5088252;28;20403;-49
2021/12/31 06:17:11;;;;;;;8.82;5.60;;;;;;;7.21;72.24;100366.06;5070380;28;20023;-50
2021/12/31 06:19:38;;;;;;;10.10;5.90;;;;;;;7.86;71.20;100380.19;5087708;28;20020;-51
2021/12/31 06:22:03;;;;;;;7.45;5.32;;;;;;;8.35;68.73;100378.19;5088522;28;20020;-48
2021/12/31 06:24:29;;;;;;;9.15;5.20;;;;;;;7.74;70.00;100387.69;5089056;28;20352;-48
2021/12/31 06:26:55;;;;;;;9.38;5.53;;;;;;;7.47;70.14;100395.00;5089408;28;20031;-49
2021/12/31 06:29:20;;;;;;;9.18;5.78;;;;;;;7.24;72.38;100386.91;5089177;28;20450;-48
2021/12/31 06:31:46;;;;;;;7.13;4.82;;;;;;;7.07;72.56;100391.38;5088182;28;20677;-51
2021/12/31 06:34:11;;;;;;;8.20;5.25;;;;;;;7.14;72.48;100394.19;5088651;28;20020;-48
2021/12/31 06:36:37;;;;;;;8.93;5.50;;;;;;;7.17;72.21;100393.88;5088409;28;20024;-49
2021/12/31 06:39:03;;;;;;;9.38;5.35;;;;;;;7.24;72.04;100384.28;5088252;28;20024;-49
2021/12/31 06:41:29;;;;;;;11.25;5.75;;;;;;;7.53;70.91;100389.03;5088737;28;20024;-49
2021/12/31 06:43:55;;;;;;;8.60;5.82;;;;;;;8.11;68.49;100400.34;5088645;28;20092;-50
2021/12/31 06:46:20;;;;;;;8.35;5.47;;;;;;;8.25;68.66;100400.63;5089674;28;20031;-51
2021/12/31 06:48:46;;;;;;;8.63;5.60;;;;;;;8.41;67.69;100398.75;5090066;28;20024;-49
2021/12/31 06:51:12;;;;;;;8.63;5.82;;;;;;;8.38;67.60;100396.41;5090230;28;20426;-47
2021/12/31 06:53:38;;;;;;;7.82;5.18;;;;;;;8.31;67.89;100406.03;5090144;28;20020;-48
2021/12/31 06:56:04;;;;;;;7.68;5.03;;;;;;;7.88;68.43;100407.34;5089820;28;20023;-48
2021/12/31 06:58:29;;;;;;;8.77;5.22;;;;;;;8.74;66.58;100409.19;5089781;28;20056;-48
2021/12/31 07:00:55;;;;;;;7.15;5.00;;;;;;;8.82;66.01;100420.75;5089924;28;20028;-47
2021/12/31 07:03:20;;;;;;;7.80;5.20;;;;;;;9.12;65.68;100424.34;5088479;28;20050;-47
2021/12/31 07:05:46;;;;;;;7.40;4.97;;;;;;;8.83;65.12;100423.22;5090157;28;20032;-48
2021/12/31 07:08:13;;;;;;;6.88;4.70;;;;;;;8.72;65.17;100424.47;5089170;28;20036;-49
2021/12/31 07:10:38;;;;;;;7.88;5.13;;;;;;;8.57;66.10;100426.19;5089208;28;20039;-48
2021/12/31 07:13:05;;;;;;;7.95;4.72;;;;;;;8.86;68.64;100430.84;5090767;28;20024;-48
2021/12/31 07:15:31;;;;;;;7.18;4.63;;;;;;;9.63;63.16;100432.56;5092721;28;20077;-47
2021/12/31 07:17:57;;;;;;;10.43;4.75;;;;;;;9.77;61.95;100433.59;5093182;28;20052;-48
2021/12/31 07:20:23;;;;;;;9.32;5.22;;;;;;;9.90;61.90;100436.47;5093215;28;20028;-48
2021/12/31 07:22:48;;;;;;;9.02;5.70;;;;;;;9.34;62.84;100442.09;5092406;28;20017;-48
2021/12/31 07:25:14;;;;;;;7.85;5.13;;;;;;;8.98;64.57;100448.00;5092498;28;20093;-49
2021/12/31 07:27:39;;;;;;;7.03;4.75;;;;;;;9.07;64.11;100447.97;5092330;28;20456;-50
2021/12/31 07:30:05;;;;;;;8.43;5.38;;;;;;;9.27;63.54;100443.00;5092362;28;20057;-50
2021/12/31 07:32:37;;;;;;;9.07;5.43;;;;;;;9.48;62.80;100451.16;5092160;28;20035;-49
2021/12/31 07:35:04;;;;;;;8.82;5.75;;;;;;;10.26;61.47;100454.38;5091992;28;20095;-47
2021/12/31 07:37:29;;;;;;;11.13;6.38;;;;;;;10.85;59.52;100441.97;5092102;28;20122;-47
2021/12/31 07:40:01;;;;;;;9.43;6.05;;;;;;;10.88;59.48;100457.59;5086537;28;20109;-49
2021/12/31 07:42:26;;;;;;;13.52;6.00;;;;;;;10.83;59.58;100454.66;5081365;28;20032;-49
2021/12/31 07:44:51;;;;;;;7.80;4.93;;;;;;;10.16;61.35;100454.63;5091813;28;20055;-48
2021/12/31 07:47:17;;;;;;;9.35;5.53;;;;;;;10.05;62.21;100460.41;5075328;28;20025;-49
2021/12/31 07:49:43;;;;;;;8.73;5.43;;;;;;;10.26;60.20;100451.69;5087271;28;20035;-50
2021/12/31 07:52:09;;;;;;;6.32;4.72;;;;;;;10.10;59.86;100459.84;5072054;28;20025;-47
2021/12/31 07:54:34;;;;;;;7.00;4.90;;;;;;;10.31;58.67;100459.16;5077351;28;20065;-47
2021/12/31 07:57:00;;;;;;;7.25;4.60;;;;;;;10.37;58.97;100469.88;5091604;28;20097;-49
2021/12/31 07:59:25;;;;;;;8.32;5.10;;;;;;;10.15;58.76;100465.47;5091826;28;20032;-49
2021/12/31 08:01:51;;;;;;;8.05;5.20;;;;;;;10.63;57.89;100463.25;5092222;28;20381;-48
2021/12/31 08:04:16;;;;;;;8.13;5.13;;;;;;;10.62;58.01;100458.91;5092093;28;20032;-47
2021/12/31 08:06:42;;;;;;;8.68;5.70;;;;;;;10.80;57.11;100450.56;5091722;28;20503;-48
2021/12/31 08:09:07;;;;;;;6.88;4.82;;;;;;;10.95;57.31;100453.16;5091633;28;20072;-48
2021/12/31 08:11:32;;;;;;;7.50;5.10;;;;;;;11.01;56.69;100456.91;5091756;28;20054;-46
2021/12/31 08:13:58;;;;;;;10.73;5.30;;;;;;;10.86;57.42;100454.28;5082694;28;20024;-48
2021/12/31 08:16:23;;;;;;;11.55;6.78;;;;;;;10.88;56.93;100458.41;5091802;28;20462;-48
2021/12/31 08:18:49;;;;;;;9.15;5.93;;;;;;;11.00;56.70;100463.25;5091596;28;20036;-48
2021/12/31 08:21:15;;;;;;;8.88;5.43;;;;;;;11.42;56.87;100458.94;5091553;28;20035;-48
2021/12/31 08:23:40;;;;;;;8.80;5.40;;;;;;;11.24;56.78;100465.56;5091248;28;20032;-50
2021/12/31 08:26:06;;;;;;;9.45;5.18;;;;;;;11.07;57.52;100469.47;5090536;28;20036;-49
2021/12/31 08:28:31;;;;;;;10.77;5.20;;;;;;;11.34;56.51;100471.38;5091670;28;20400;-47
2021/12/31 08:30:58;;;;;;;6.97;5.15;;;;;;;11.40;56.08;100469.78;5091754;28;20074;-49
2021/12/31 08:33:25;;;;;;;6.68;4.78;;;;;;;11.43;56.25;100476.59;5091581;28;20463;-48
2021/12/31 08:35:50;;;;;;;7.45;4.85;;;;;;;11.69;55.54;100474.16;5091496;28;20024;-48
2021/12/31 08:38:15;;;;;;;7.20;4.75;;;;;;;11.89;54.53;100465.47;5091505;28;20047;-46
2021/12/31 08:40:41;;;;;;;7.95;4.90;;;;;;;11.74;54.81;100466.38;5091160;28;20533;-50
2021/12/31 08:43:07;;;;;;;7.18;4.88;;;;;;;11.78;54.71;100461.50;5090877;28;20035;-50
2021/12/31 08:45:32;;;;;;;9.50;5.00;;;;;;;11.82;54.71;100461.94;5091609;28;20444;-49
2021/12/31 08:47:58;;;;;;;7.03;5.07;;;;;;;11.38;55.41;100463.00;5090742;28;20043;-48
2021/12/31 08:50:24;;;;;;;6.80;4.60;;;;;;;11.80;55.10;100461.31;5090736;28;20337;-47
2021/12/31 08:52:49;;;;;;;6.78;4.70;;;;;;;12.17;53.51;100465.50;5089592;28;20488;-48
2021/12/31 08:55:15;;;;;;;7.63;5.07;;;;;;;12.39;54.09;100465.41;5090945;28;20115;-49
2021/12/31 08:57:40;;;;;;;6.72;5.05;;;;;;;11.79;54.42;100460.50;5090618;28;20028;-48
2021/12/31 09:00:06;;;;;;;10.25;6.05;;;;;;;11.58;54.99;100453.34;5090775;28;20123;-50
2021/12/31 09:02:33;;;;;;;17.05;9.52;;;;;;;11.49;55.72;100438.50;5090430;28;20377;-50
2021/12/31 09:04:58;;;;;;;10.18;6.10;;;;;;;11.88;54.64;100448.66;5090762;28;20356;-47
2021/12/31 09:07:24;;;;;;;10.82;7.20;;;;;;;12.32;53.33;100442.16;5090249;28;20059;-47
2021/12/31 09:09:49;;;;;;;6.97;4.60;;;;;;;11.93;53.01;100440.09;5091022;28;20043;-38
2021/12/31 09:12:14;;;;;;;10.18;4.50;;;;;;;12.03;53.48;100427.25;5090748;28;20016;-38
2021/12/31 09:14:40;;;;;;;6.85;4.72;;;;;;;11.70;54.63;100426.97;5090932;28;20032;-38
2021/12/31 09:17:06;;;;;;;8.05;4.30;;;;;;;11.80;53.72;100419.44;5090800;28;20475;-38
2021/12/31 09:19:31;;;;;;;7.97;4.50;;;;;;;11.71;53.48;100408.13;5090698;28;20047;-38
2021/12/31 09:21:57;;;;;;;7.80;4.65;;;;;;;12.45;52.98;100412.06;5090261;28;20115;-38
2021/12/31 09:24:23;;;;;;;8.05;4.50;;;;;;;12.48;52.20;100416.16;5090579;28;20020;-38
2021/12/31 09:26:49;;;;;;;7.40;4.50;;;;;;;11.66;54.47;100397.22;5089254;28;20451;-38
2021/12/31 09:29:18;;;;;;;7.47;4.38;;;;;;;11.81;53.90;100399.78;5090564;28;20073;-38
2021/12/31 09:31:43;;;;;;;5.80;4.03;;;;;;;12.23;53.04;100389.16;5090829;28;20024;-38
2021/12/31 09:34:09;;;;;;;10.32;5.20;;;;;;;11.91;54.02;100381.59;5090549;28;20039;-38
2021/12/31 09:36:34;;;;;;;6.68;4.40;;;;;;;12.10;54.25;100381.91;5090250;28;20084;-38
2021/12/31 09:39:00;;;;;;;7.90;4.53;;;;;;;12.15;52.81;100342.13;5090569;28;20078;-38
2021/12/31 09:41:25;;;;;;;6.75;4.55;;;;;;;12.49;53.00;100369.78;5089003;28;20031;-38
2021/12/31 09:43:51;;;;;;;5.93;4.15;;;;;;;12.56;52.15;100361.75;5090508;28;20109;-38
2021/12/31 09:46:18;;;;;;;6.60;4.20;;;;;;;12.54;52.32;100351.28;5090273;28;20031;-39
2021/12/31 09:48:43;;;;;;;6.93;4.05;;;;;;;12.85;51.78;100356.09;5088772;28;20069;-38
2021/12/31 09:51:09;;;;;;;5.75;3.83;;;;;;;12.95;51.72;100350.34;5090345;28;20646;-38
2021/12/31 09:53:34;;;;;;;7.07;4.40;;;;;;;13.42;50.68;100356.53;5090167;28;20134;-38
2021/12/31 09:56:00;;;;;;;6.00;4.30;;;;;;;13.49;50.42;100351.19;5088300;28;20028;-38
2021/12/31 09:58:26;;;;;;;6.53;4.68;;;;;;;13.38;54.80;100347.28;5090145;28;20097;-37
2021/12/31 10:00:53;;;;;;;6.85;4.53;;;;;;;13.33;51.75;100340.91;5090039;28;20024;-47
2021/12/31 10:03:21;;;;;;;9.38;5.38;;;;;;;14.10;50.30;100338.47;5088417;28;20035;-48
2021/12/31 10:05:48;;;;;;;10.98;5.25;;;;;;;14.55;49.76;100333.94;5089692;28;20028;-47
2021/12/31 10:08:36;;;;;;;5.70;4.15;;;;;;;14.07;48.50;100329.03;5089434;28;20066;-49
2021/12/31 10:11:13;;;;;;;8.00;4.82;;;;;;;13.62;49.26;100319.06;5089322;28;20102;-50
2021/12/31 10:13:40;;;;;;;5.28;3.80;;;;;;;13.07;49.41;100305.13;5089268;28;20440;-47
2021/12/31 10:16:06;;;;;;;5.60;3.63;;;;;;;13.13;50.09;100312.31;5089748;28;20027;-50
2021/12/31 10:18:36;;;;;;;5.85;3.75;;;;;;;13.32;50.37;100318.69;5089778;28;20059;-48
2021/12/31 10:21:03;;;;;;;6.60;4.10;;;;;;;13.43;49.06;100311.91;5089706;28;20028;-48
2021/12/31 10:23:28;;;;;;;8.43;4.55;;;;;;;13.49;49.01;100306.53;5089910;28;20020;-50
2021/12/31 10:26:13;;;;;;;7.20;4.03;;;;;;;13.03;50.07;100309.25;5089143;28;20099;-49
2021/12/31 10:28:57;;;;;;;6.90;4.25;;;;;;;13.10;50.17;100310.06;5089439;28;20485;-51
2021/12/31 10:31:22;;;;;;;6.07;3.67;;;;;;;13.03;49.68;100307.38;5089360;28;20434;-50
2021/12/31 10:33:48;;;;;;;7.78;3.92;;;;;;;13.45;49.24;100299.16;5088248;28;20089;-49
2021/12/31 10:36:33;;;;;;;5.47;3.83;;;;;;;13.33;49.10;100290.97;5089088;28;20116;-49
2021/12/31 10:39:00;;;;;;;5.47;3.40;;;;;;;13.24;49.68;100289.50;5088825;28;20133;-50
2021/12/31 10:41:25;;;;;;;5.45;3.80;;;;;;;13.29;49.67;100289.69;5089053;28;20452;-47
2021/12/31 10:43:59;;;;;;;7.80;4.03;;;;;;;13.17;50.37;100272.63;5089316;28;20024;-47
2021/12/31 10:46:24;;;;;;;5.47;3.45;;;;;;;13.20;51.02;100281.06;5088876;28;20365;-51
2021/12/31 10:48:51;;;;;;;8.63;4.13;;;;;;;13.94;51.14;100281.72;5091657;28;20035;-49
2021/12/31 10:51:18;;;;;;;5.90;3.95;;;;;;;14.00;48.57;100272.84;5093149;28;20026;-49
2021/12/31 10:53:50;;;;;;;7.63;3.97;;;;;;;13.16;49.85;100285.19;5093176;28;20541;-51
2021/12/31 10:56:17;;;;;;;6.95;3.97;;;;;;;12.99;53.48;100268.75;5093284;28;20035;-47
2021/12/31 10:59:03;;;;;;;5.57;3.95;;;;;;;12.86;52.05;100264.22;5093390;28;20024;-48
2021/12/31 11:01:28;;;;;;;6.43;4.07;;;;;;;13.04;53.90;100274.31;5093700;28;20039;-48
2021/12/31 11:03:55;;;;;;;7.05;4.32;;;;;;;13.34;50.88;100267.72;5092555;28;20051;-48
2021/12/31 11:06:20;;;;;;;6.43;4.30;;;;;;;12.84;52.03;100265.47;5093128;28;20468;-49
2021/12/31 11:08:47;;;;;;;7.10;4.47;;;;;;;12.57;54.12;100272.66;5092151;28;20047;-49
2021/12/31 11:11:16;;;;;;;7.57;4.57;;;;;;;12.97;53.09;100272.66;5075858;28;20048;-48
2021/12/31 11:13:43;;;;;;;5.93;4.00;;;;;;;13.00;54.20;100259.69;5093240;28;20034;-49
2021/12/31 11:16:10;;;;;;;7.18;4.18;;;;;;;13.45;51.84;100261.72;5093819;28;20019;-50
2021/12/31 11:18:36;;;;;;;6.07;3.63;;;;;;;13.58;51.20;100258.19;5093269;28;20076;-48
2021/12/31 11:21:03;;;;;;;6.70;4.05;;;;;;;13.23;51.67;100259.28;5092223;28;20036;-49
2021/12/31 11:23:29;;;;;;;5.72;3.60;;;;;;;13.33;50.38;100260.72;5091679;28;20016;-48
2021/12/31 11:26:08;;;;;;;6.40;4.25;;;;;;;13.10;51.74;100260.13;5093266;28;20034;-48